sensor_id;sensor_type;location;lat;lon;timestamp;pressure;altitude;pressure_sealevel;temperature;humidity
43934;BME280;59081;42.706;23.306;2023-06-22T00:01:27;95587.25;;;20.62;73.78
43934;BME280;59081;42.706;23.306;2023-06-22T00:03:53;95606.78;;;20.77;74.44
43934;BME280;59081;42.706;23.306;2023-06-22T00:06:19;95564.16;;;20.41;74.45
43934;BME280;59081;42.706;23.306;2023-06-22T00:08:44;95625.69;;;20.88;75.25
43934;BME280;59081;42.706;23.306;2023-06-22T00:11:10;95462.97;;;19.76;75.51
43934;BME280;59081;42.706;23.306;2023-06-22T00:13:36;95470.06;;;19.72;75.51
43934;BME280;59081;42.706;23.306;2023-06-22T00:16:01;95529.44;;;20.07;75.84
43934;BME280;59081;42.706;23.306;2023-06-22T00:18:27;95471.31;;;19.71;76.21
43934;BME280;59081;42.706;23.306;2023-06-22T00:20:54;95576.34;;;20.38;76.02
43934;BME280;59081;42.706;23.306;2023-06-22T00:23:23;95524.81;;;20.04;76.44
43934;BME280;59081;42.706;23.306;2023-06-22T00:25:49;95565.50;;;20.26;77.02
43934;BME280;59081;42.706;23.306;2023-06-22T00:28:15;95540.94;;;20.15;77.11
43934;BME280;59081;42.706;23.306;2023-06-22T00:30:40;95588.63;;;20.46;77.34
43934;BME280;59081;42.706;23.306;2023-06-22T00:33:06;95494.09;;;19.84;77.34
43934;BME280;59081;42.706;23.306;2023-06-22T00:35:33;95615.75;;;20.61;76.93
43934;BME280;59081;42.706;23.306;2023-06-22T00:37:59;95607.09;;;20.59;76.92
43934;BME280;59081;42.706;23.306;2023-06-22T00:40:33;95503.53;;;19.87;77.01
43934;BME280;59081;42.706;23.306;2023-06-22T00:42:58;95518.59;;;19.95;77.61
43934;BME280;59081;42.706;23.306;2023-06-22T00:45:25;95548.09;;;20.16;77.75
43934;BME280;59081;42.706;23.306;2023-06-22T00:47:56;95602.00;;;20.57;77.45
43934;BME280;59081;42.706;23.306;2023-06-22T00:50:24;95521.75;;;20.02;77.45
43934;BME280;59081;42.706;23.306;2023-06-22T00:52:55;95452.22;;;19.49;77.18
43934;BME280;59081;42.706;23.306;2023-06-22T00:55:24;95589.13;;;20.25;77.11
43934;BME280;59081;42.706;23.306;2023-06-22T00:57:51;95543.63;;;19.84;76.01
43934;BME280;59081;42.706;23.306;2023-06-22T01:00:22;95539.84;;;19.66;76.65
43934;BME280;59081;42.706;23.306;2023-06-22T01:02:50;95581.16;;;19.97;75.99
43934;BME280;59081;42.706;23.306;2023-06-22T01:05:18;95497.28;;;19.36;75.67
43934;BME280;59081;42.706;23.306;2023-06-22T01:12:55;95569.06;;;19.86;75.18
43934;BME280;59081;42.706;23.306;2023-06-22T01:17:53;95545.44;;;19.66;75.29
43934;BME280;59081;42.706;23.306;2023-06-22T01:20:20;95577.38;;;19.80;75.61
43934;BME280;59081;42.706;23.306;2023-06-22T01:25:31;95598.72;;;19.98;75.13
43934;BME280;59081;42.706;23.306;2023-06-22T01:28:29;95614.31;;;20.04;75.55
43934;BME280;59081;42.706;23.306;2023-06-22T01:30:55;95575.84;;;19.44;75.76
43934;BME280;59081;42.706;23.306;2023-06-22T01:33:26;95502.53;;;18.64;76.82
43934;BME280;59081;42.706;23.306;2023-06-22T01:35:52;95526.09;;;18.78;77.05
43934;BME280;59081;42.706;23.306;2023-06-22T01:38:18;95517.09;;;18.89;77.12
43934;BME280;59081;42.706;23.306;2023-06-22T01:40:43;95518.34;;;18.88;77.01
43934;BME280;59081;42.706;23.306;2023-06-22T01:43:09;95556.44;;;19.05;76.69
43934;BME280;59081;42.706;23.306;2023-06-22T01:45:34;95489.81;;;18.63;77.52
43934;BME280;59081;42.706;23.306;2023-06-22T01:48:00;95537.22;;;18.93;77.90
43934;BME280;59081;42.706;23.306;2023-06-22T01:50:26;95546.56;;;19.04;78.36
43934;BME280;59081;42.706;23.306;2023-06-22T01:52:51;95560.78;;;19.06;78.48
43934;BME280;59081;42.706;23.306;2023-06-22T01:55:17;95531.56;;;18.87;78.23
43934;BME280;59081;42.706;23.306;2023-06-22T01:57:42;95571.75;;;19.10;78.50
43934;BME280;59081;42.706;23.306;2023-06-22T02:00:12;95637.50;;;19.55;78.67
43934;BME280;59081;42.706;23.306;2023-06-22T02:03:03;95652.81;;;19.60;78.51
43934;BME280;59081;42.706;23.306;2023-06-22T02:05:35;95559.06;;;18.94;78.78
43934;BME280;59081;42.706;23.306;2023-06-22T02:08:46;95654.53;;;19.57;78.35
43934;BME280;59081;42.706;23.306;2023-06-22T02:10:51;95565.25;;;18.84;77.64
43934;BME280;59081;42.706;23.306;2023-06-22T02:13:18;95533.03;;;18.68;77.36
43934;BME280;59081;42.706;23.306;2023-06-22T02:15:45;95614.22;;;19.14;76.92
43934;BME280;59081;42.706;23.306;2023-06-22T02:18:11;95586.19;;;18.50;78.49
43934;BME280;59081;42.706;23.306;2023-06-22T02:20:38;95572.38;;;18.17;80.25
43934;BME280;59081;42.706;23.306;2023-06-22T02:23:05;95594.78;;;18.22;81.28
43934;BME280;59081;42.706;23.306;2023-06-22T02:25:31;95557.06;;;17.73;82.54
43934;BME280;59081;42.706;23.306;2023-06-22T02:27:57;95524.13;;;17.39;83.57
43934;BME280;59081;42.706;23.306;2023-06-22T02:30:22;95543.59;;;17.48;83.92
43934;BME280;59081;42.706;23.306;2023-06-22T02:32:48;95602.41;;;17.98;84.66
43934;BME280;59081;42.706;23.306;2023-06-22T02:35:13;95554.56;;;17.76;84.37
43934;BME280;59081;42.706;23.306;2023-06-22T02:37:39;95536.41;;;17.65;83.83
43934;BME280;59081;42.706;23.306;2023-06-22T02:40:07;95575.66;;;17.67;83.78
43934;BME280;59081;42.706;23.306;2023-06-22T02:42:34;95529.28;;;16.98;85.62
43934;BME280;59081;42.706;23.306;2023-06-22T02:45:00;95589.66;;;17.49;86.08
43934;BME280;59081;42.706;23.306;2023-06-22T02:47:26;95616.03;;;17.72;86.33
43934;BME280;59081;42.706;23.306;2023-06-22T02:49:52;95566.81;;;17.45;86.06
43934;BME280;59081;42.706;23.306;2023-06-22T02:52:17;95581.63;;;17.51;85.77
43934;BME280;59081;42.706;23.306;2023-06-22T02:54:43;95524.31;;;17.35;85.53
43934;BME280;59081;42.706;23.306;2023-06-22T02:57:10;95566.66;;;17.72;84.83
43934;BME280;59081;42.706;23.306;2023-06-22T02:59:39;95592.22;;;17.95;84.79
43934;BME280;59081;42.706;23.306;2023-06-22T03:02:06;95646.16;;;18.30;84.44
43934;BME280;59081;42.706;23.306;2023-06-22T03:04:31;95580.16;;;17.89;84.17
43934;BME280;59081;42.706;23.306;2023-06-22T03:06:57;95643.00;;;18.37;84.19
43934;BME280;59081;42.706;23.306;2023-06-22T03:09:26;95575.97;;;17.93;83.78
43934;BME280;59081;42.706;23.306;2023-06-22T03:11:53;95542.84;;;17.71;83.58
43934;BME280;59081;42.706;23.306;2023-06-22T03:14:18;95569.78;;;17.89;83.61
43934;BME280;59081;42.706;23.306;2023-06-22T03:16:44;95586.47;;;17.98;83.54
43934;BME280;59081;42.706;23.306;2023-06-22T03:19:09;95604.19;;;18.10;83.63
43934;BME280;59081;42.706;23.306;2023-06-22T03:21:37;95625.84;;;18.15;83.42
43934;BME280;59081;42.706;23.306;2023-06-22T03:24:04;95606.44;;;17.97;83.03
43934;BME280;59081;42.706;23.306;2023-06-22T03:26:29;95607.16;;;17.83;83.90
43934;BME280;59081;42.706;23.306;2023-06-22T03:28:55;95581.19;;;17.77;83.67
43934;BME280;59081;42.706;23.306;2023-06-22T03:31:20;95592.75;;;17.84;83.50
43934;BME280;59081;42.706;23.306;2023-06-22T03:33:47;95566.25;;;17.65;83.38
43934;BME280;59081;42.706;23.306;2023-06-22T03:36:13;95558.34;;;17.63;83.56
43934;BME280;59081;42.706;23.306;2023-06-22T03:38:39;95573.78;;;17.73;83.41
43934;BME280;59081;42.706;23.306;2023-06-22T03:41:04;95645.34;;;18.15;83.64
43934;BME280;59081;42.706;23.306;2023-06-22T03:43:30;95673.50;;;18.41;82.81
43934;BME280;59081;42.706;23.306;2023-06-22T03:45:55;95541.97;;;17.65;82.72
43934;BME280;59081;42.706;23.306;2023-06-22T03:48:21;95600.09;;;17.96;83.13
43934;BME280;59081;42.706;23.306;2023-06-22T03:50:46;95623.94;;;17.97;84.41
43934;BME280;59081;42.706;23.306;2023-06-22T03:53:11;95695.94;;;18.47;84.01
43934;BME280;59081;42.706;23.306;2023-06-22T03:55:47;95702.06;;;18.60;84.16
43934;BME280;59081;42.706;23.306;2023-06-22T03:58:13;95677.34;;;18.43;83.67
43934;BME280;59081;42.706;23.306;2023-06-22T04:00:38;95698.63;;;18.56;83.50
43934;BME280;59081;42.706;23.306;2023-06-22T04:03:04;95652.66;;;18.13;83.55
43934;BME280;59081;42.706;23.306;2023-06-22T04:05:30;95596.28;;;17.85;83.80
43934;BME280;59081;42.706;23.306;2023-06-22T04:07:55;95635.56;;;17.96;84.04
43934;BME280;59081;42.706;23.306;2023-06-22T04:10:21;95647.00;;;17.98;84.38
43934;BME280;59081;42.706;23.306;2023-06-22T04:12:46;95692.56;;;17.95;87.58
43934;BME280;59081;42.706;23.306;2023-06-22T04:15:12;95637.63;;;17.86;85.91
43934;BME280;59081;42.706;23.306;2023-06-22T04:17:37;95689.97;;;18.15;85.99
43934;BME280;59081;42.706;23.306;2023-06-22T04:20:03;95561.97;;;17.22;86.82
43934;BME280;59081;42.706;23.306;2023-06-22T04:22:29;95593.06;;;17.53;86.89
43934;BME280;59081;42.706;23.306;2023-06-22T04:24:54;95598.16;;;17.55;86.76
43934;BME280;59081;42.706;23.306;2023-06-22T04:27:20;95570.38;;;17.46;86.85
43934;BME280;59081;42.706;23.306;2023-06-22T04:29:48;95614.50;;;17.95;86.10
43934;BME280;59081;42.706;23.306;2023-06-22T04:32:15;95676.00;;;18.39;85.02
43934;BME280;59081;42.706;23.306;2023-06-22T04:34:40;95574.31;;;17.87;84.74
43934;BME280;59081;42.706;23.306;2023-06-22T04:37:06;95608.03;;;18.13;84.37
43934;BME280;59081;42.706;23.306;2023-06-22T04:39:31;95587.00;;;17.88;84.37
43934;BME280;59081;42.706;23.306;2023-06-22T04:41:57;95630.03;;;18.34;83.54
43934;BME280;59081;42.706;23.306;2023-06-22T04:44:25;95625.41;;;18.31;81.92
43934;BME280;59081;42.706;23.306;2023-06-22T04:46:53;95629.75;;;18.47;81.98
43934;BME280;59081;42.706;23.306;2023-06-22T04:49:20;95657.53;;;18.80;80.32
43934;BME280;59081;42.706;23.306;2023-06-22T04:51:47;95616.34;;;18.36;80.61
43934;BME280;59081;42.706;23.306;2023-06-22T04:54:13;95596.03;;;18.21;81.04
43934;BME280;59081;42.706;23.306;2023-06-22T04:56:38;95591.47;;;18.33;81.20
43934;BME280;59081;42.706;23.306;2023-06-22T04:59:06;95588.03;;;18.53;80.34
43934;BME280;59081;42.706;23.306;2023-06-22T05:01:32;95631.66;;;18.94;80.17
43934;BME280;59081;42.706;23.306;2023-06-22T05:03:58;95622.22;;;19.06;79.88
43934;BME280;59081;42.706;23.306;2023-06-22T05:06:26;95682.28;;;19.61;79.15
43934;BME280;59081;42.706;23.306;2023-06-22T05:08:56;95676.88;;;19.72;77.99
43934;BME280;59081;42.706;23.306;2023-06-22T05:11:27;95639.88;;;19.47;76.46
43934;BME280;59081;42.706;23.306;2023-06-22T05:13:53;95617.44;;;19.42;76.60
43934;BME280;59081;42.706;23.306;2023-06-22T05:16:20;95631.63;;;19.24;77.24
43934;BME280;59081;42.706;23.306;2023-06-22T05:18:53;95619.50;;;19.27;77.05
43934;BME280;59081;42.706;23.306;2023-06-22T05:21:22;95665.22;;;19.73;76.41
43934;BME280;59081;42.706;23.306;2023-06-22T05:23:48;95608.09;;;19.45;75.61
43934;BME280;59081;42.706;23.306;2023-06-22T05:26:13;95621.47;;;19.70;75.29
43934;BME280;59081;42.706;23.306;2023-06-22T05:28:39;95611.13;;;19.76;73.16
43934;BME280;59081;42.706;23.306;2023-06-22T05:31:04;95590.31;;;19.77;73.21
43934;BME280;59081;42.706;23.306;2023-06-22T05:33:30;95646.25;;;20.18;72.39
43934;BME280;59081;42.706;23.306;2023-06-22T05:35:55;95646.38;;;20.29;72.46
43934;BME280;59081;42.706;23.306;2023-06-22T05:38:23;95617.31;;;20.21;71.46
43934;BME280;59081;42.706;23.306;2023-06-22T05:40:49;95637.44;;;20.45;70.40
43934;BME280;59081;42.706;23.306;2023-06-22T05:43:15;95634.50;;;20.34;70.35
43934;BME280;59081;42.706;23.306;2023-06-22T05:45:40;95632.31;;;20.38;70.03
43934;BME280;59081;42.706;23.306;2023-06-22T05:48:06;95641.56;;;20.70;69.86
43934;BME280;59081;42.706;23.306;2023-06-22T05:50:31;95684.00;;;21.15;68.56
43934;BME280;59081;42.706;23.306;2023-06-22T05:52:57;95656.38;;;21.23;67.63
43934;BME280;59081;42.706;23.306;2023-06-22T05:55:22;95685.59;;;21.47;67.25
43934;BME280;59081;42.706;23.306;2023-06-22T05:57:48;95635.28;;;21.33;66.57
43934;BME280;59081;42.706;23.306;2023-06-22T06:00:13;95688.41;;;21.79;64.86
43934;BME280;59081;42.706;23.306;2023-06-22T06:02:40;95636.97;;;21.50;65.83
43934;BME280;59081;42.706;23.306;2023-06-22T06:05:12;95693.16;;;21.67;66.25
43934;BME280;59081;42.706;23.306;2023-06-22T06:07:41;95712.06;;;21.72;65.80
43934;BME280;59081;42.706;23.306;2023-06-22T06:10:07;95619.75;;;21.06;66.13
43934;BME280;59081;42.706;23.306;2023-06-22T06:12:33;95621.00;;;21.31;65.20
43934;BME280;59081;42.706;23.306;2023-06-22T06:14:59;95625.09;;;21.67;65.04
43934;BME280;59081;42.706;23.306;2023-06-22T06:17:24;95708.72;;;22.42;64.59
43934;BME280;59081;42.706;23.306;2023-06-22T06:19:49;95661.69;;;22.26;64.30
43934;BME280;59081;42.706;23.306;2023-06-22T06:22:15;95699.41;;;22.68;63.87
43934;BME280;59081;42.706;23.306;2023-06-22T06:24:40;95659.25;;;22.56;62.45
43934;BME280;59081;42.706;23.306;2023-06-22T06:27:06;95637.03;;;22.52;62.64
43934;BME280;59081;42.706;23.306;2023-06-22T06:29:32;95605.94;;;22.50;62.47
43934;BME280;59081;42.706;23.306;2023-06-22T06:31:57;95647.44;;;23.00;61.75
43934;BME280;59081;42.706;23.306;2023-06-22T06:34:23;95694.00;;;23.57;60.32
43934;BME280;59081;42.706;23.306;2023-06-22T06:36:49;95663.34;;;23.53;60.12
43934;BME280;59081;42.706;23.306;2023-06-22T06:39:14;95615.78;;;23.33;58.66
43934;BME280;59081;42.706;23.306;2023-06-22T06:41:41;95603.75;;;23.38;59.48
43934;BME280;59081;42.706;23.306;2023-06-22T06:44:06;95645.94;;;23.77;58.54
43934;BME280;59081;42.706;23.306;2023-06-22T06:46:32;95697.03;;;24.20;58.38
43934;BME280;59081;42.706;23.306;2023-06-22T06:48:57;95623.94;;;23.81;57.33
43934;BME280;59081;42.706;23.306;2023-06-22T06:51:23;95584.59;;;23.25;58.14
43934;BME280;59081;42.706;23.306;2023-06-22T06:53:48;95636.47;;;23.80;57.89
43934;BME280;59081;42.706;23.306;2023-06-22T06:56:14;95617.28;;;23.73;57.88
43934;BME280;59081;42.706;23.306;2023-06-22T06:58:42;95650.22;;;24.28;56.59
43934;BME280;59081;42.706;23.306;2023-06-22T07:01:08;95665.84;;;24.82;55.87
43934;BME280;59081;42.706;23.306;2023-06-22T07:03:34;95616.19;;;24.79;53.85
43934;BME280;59081;42.706;23.306;2023-06-22T07:06:00;95570.69;;;24.06;55.44
43934;BME280;59081;42.706;23.306;2023-06-22T07:08:25;95590.91;;;24.68;55.79
43934;BME280;59081;42.706;23.306;2023-06-22T07:10:52;95623.41;;;24.74;53.39
43934;BME280;59081;42.706;23.306;2023-06-22T07:13:17;95667.22;;;25.16;54.45
43934;BME280;59081;42.706;23.306;2023-06-22T07:15:42;95602.72;;;25.07;53.15
43934;BME280;59081;42.706;23.306;2023-06-22T07:18:08;95605.78;;;25.45;52.97
43934;BME280;59081;42.706;23.306;2023-06-22T07:20:33;95605.66;;;25.56;51.63
43934;BME280;59081;42.706;23.306;2023-06-22T07:22:59;95646.00;;;26.05;51.38
43934;BME280;59081;42.706;23.306;2023-06-22T07:25:25;95649.66;;;26.24;50.31
43934;BME280;59081;42.706;23.306;2023-06-22T07:28:02;95591.47;;;26.16;49.45
43934;BME280;59081;42.706;23.306;2023-06-22T07:30:29;95591.47;;;26.16;48.87
43934;BME280;59081;42.706;23.306;2023-06-22T07:32:55;95681.69;;;26.57;49.68
43934;BME280;59081;42.706;23.306;2023-06-22T07:35:20;95597.03;;;26.02;49.99
43934;BME280;59081;42.706;23.306;2023-06-22T07:37:46;95602.19;;;25.98;50.69
43934;BME280;59081;42.706;23.306;2023-06-22T07:40:12;95674.94;;;26.41;51.02
43934;BME280;59081;42.706;23.306;2023-06-22T07:42:37;95624.63;;;26.40;50.38
43934;BME280;59081;42.706;23.306;2023-06-22T07:45:03;95634.56;;;26.46;50.69
43934;BME280;59081;42.706;23.306;2023-06-22T07:47:29;95669.16;;;26.95;50.53
43934;BME280;59081;42.706;23.306;2023-06-22T07:49:57;95694.44;;;27.25;49.70
43934;BME280;59081;42.706;23.306;2023-06-22T07:52:24;95664.16;;;26.83;49.68
43934;BME280;59081;42.706;23.306;2023-06-22T07:54:50;95611.63;;;26.50;50.28
43934;BME280;59081;42.706;23.306;2023-06-22T07:57:16;95664.16;;;27.20;49.14
43934;BME280;59081;42.706;23.306;2023-06-22T07:59:42;95611.34;;;26.91;48.75
43934;BME280;59081;42.706;23.306;2023-06-22T08:02:07;95600.34;;;26.68;50.05
43934;BME280;59081;42.706;23.306;2023-06-22T08:04:33;95608.50;;;26.96;50.29
43934;BME280;59081;42.706;23.306;2023-06-22T08:07:00;95625.00;;;27.43;49.95
43934;BME280;59081;42.706;23.306;2023-06-22T08:09:28;95603.34;;;27.46;49.63
43934;BME280;59081;42.706;23.306;2023-06-22T08:11:54;95658.81;;;27.99;49.18
43934;BME280;59081;42.706;23.306;2023-06-22T08:14:20;95581.47;;;27.65;48.90
43934;BME280;59081;42.706;23.306;2023-06-22T08:16:46;95661.06;;;28.33;49.37
43934;BME280;59081;42.706;23.306;2023-06-22T08:19:12;95613.75;;;28.15;48.26
43934;BME280;59081;42.706;23.306;2023-06-22T08:21:37;95571.47;;;27.90;47.47
43934;BME280;59081;42.706;23.306;2023-06-22T08:24:03;95576.28;;;27.95;46.67
43934;BME280;59081;42.706;23.306;2023-06-22T08:26:29;95614.16;;;28.05;48.19
43934;BME280;59081;42.706;23.306;2023-06-22T08:28:54;95658.00;;;28.44;47.38
43934;BME280;59081;42.706;23.306;2023-06-22T08:31:20;95579.00;;;27.88;46.92
43934;BME280;59081;42.706;23.306;2023-06-22T08:33:45;95620.88;;;27.44;49.13
43934;BME280;59081;42.706;23.306;2023-06-22T08:36:11;95583.63;;;27.40;48.65
43934;BME280;59081;42.706;23.306;2023-06-22T08:38:38;95658.38;;;27.95;46.89
43934;BME280;59081;42.706;23.306;2023-06-22T08:41:04;95627.22;;;27.82;47.81
43934;BME280;59081;42.706;23.306;2023-06-22T08:43:30;95574.59;;;27.60;48.14
43934;BME280;59081;42.706;23.306;2023-06-22T08:45:55;95655.31;;;28.38;47.29
43934;BME280;59081;42.706;23.306;2023-06-22T08:48:21;95644.28;;;28.61;46.08
43934;BME280;59081;42.706;23.306;2023-06-22T08:50:46;95608.31;;;28.69;45.60
43934;BME280;59081;42.706;23.306;2023-06-22T08:53:12;95592.53;;;28.48;44.41
43934;BME280;59081;42.706;23.306;2023-06-22T08:55:38;95532.81;;;27.80;45.58
43934;BME280;59081;42.706;23.306;2023-06-22T08:58:03;95582.19;;;28.37;46.09
43934;BME280;59081;42.706;23.306;2023-06-22T09:00:29;95577.16;;;28.56;45.92
43934;BME280;59081;42.706;23.306;2023-06-22T09:02:58;95585.84;;;28.85;45.88
43934;BME280;59081;42.706;23.306;2023-06-22T09:05:24;95518.19;;;28.41;46.08
43934;BME280;59081;42.706;23.306;2023-06-22T09:07:51;95593.94;;;28.54;45.92
43934;BME280;59081;42.706;23.306;2023-06-22T09:10:17;95559.41;;;28.29;46.17
43934;BME280;59081;42.706;23.306;2023-06-22T09:12:42;95573.84;;;28.65;45.66
43934;BME280;59081;42.706;23.306;2023-06-22T09:15:08;95566.00;;;28.71;44.45
43934;BME280;59081;42.706;23.306;2023-06-22T09:17:34;95593.78;;;29.20;44.04
43934;BME280;59081;42.706;23.306;2023-06-22T09:20:01;95594.66;;;29.49;43.14
43934;BME280;59081;42.706;23.306;2023-06-22T09:22:27;95581.06;;;29.34;41.22
43934;BME280;59081;42.706;23.306;2023-06-22T09:24:55;95565.09;;;28.76;42.91
43934;BME280;59081;42.706;23.306;2023-06-22T09:27:21;95586.59;;;28.59;42.84
43934;BME280;59081;42.706;23.306;2023-06-22T09:29:47;95579.72;;;28.81;42.35
43934;BME280;59081;42.706;23.306;2023-06-22T09:32:13;95613.44;;;29.18;42.51
43934;BME280;59081;42.706;23.306;2023-06-22T09:34:38;95612.22;;;29.48;41.75
43934;BME280;59081;42.706;23.306;2023-06-22T09:37:04;95614.59;;;29.77;40.87
43934;BME280;59081;42.706;23.306;2023-06-22T09:39:30;95577.75;;;29.85;40.29
43934;BME280;59081;42.706;23.306;2023-06-22T09:41:57;95628.94;;;30.42;40.02
43934;BME280;59081;42.706;23.306;2023-06-22T09:44:22;95634.63;;;30.50;37.21
43934;BME280;59081;42.706;23.306;2023-06-22T09:46:48;95611.53;;;30.53;36.97
43934;BME280;59081;42.706;23.306;2023-06-22T09:49:13;95617.47;;;30.27;38.63
43934;BME280;59081;42.706;23.306;2023-06-22T09:51:39;95612.88;;;30.24;38.92
43934;BME280;59081;42.706;23.306;2023-06-22T09:54:04;95545.13;;;29.16;39.34
43934;BME280;59081;42.706;23.306;2023-06-22T09:56:30;95539.38;;;29.29;39.68
43934;BME280;59081;42.706;23.306;2023-06-22T09:58:56;95614.44;;;29.62;41.16
43934;BME280;59081;42.706;23.306;2023-06-22T10:01:22;95535.91;;;28.82;42.14
43934;BME280;59081;42.706;23.306;2023-06-22T10:03:48;95575.41;;;29.00;42.45
43934;BME280;59081;42.706;23.306;2023-06-22T10:06:13;95514.44;;;28.60;42.60
43934;BME280;59081;42.706;23.306;2023-06-22T10:08:39;95575.69;;;29.44;42.35
43934;BME280;59081;42.706;23.306;2023-06-22T10:11:06;95612.47;;;29.36;41.82
43934;BME280;59081;42.706;23.306;2023-06-22T10:13:31;95570.84;;;29.52;41.96
43934;BME280;59081;42.706;23.306;2023-06-22T10:15:57;95559.69;;;29.33;40.89
43934;BME280;59081;42.706;23.306;2023-06-22T10:18:22;95574.47;;;29.81;39.63
43934;BME280;59081;42.706;23.306;2023-06-22T10:20:49;95567.06;;;29.99;40.74
43934;BME280;59081;42.706;23.306;2023-06-22T10:23:19;95548.69;;;29.51;39.76
43934;BME280;59081;42.706;23.306;2023-06-22T10:25:45;95514.28;;;29.54;39.43
43934;BME280;59081;42.706;23.306;2023-06-22T10:28:11;95580.84;;;30.52;40.12
43934;BME280;59081;42.706;23.306;2023-06-22T10:30:38;95575.06;;;30.65;38.75
43934;BME280;59081;42.706;23.306;2023-06-22T10:33:06;95552.38;;;30.88;38.77
43934;BME280;59081;42.706;23.306;2023-06-22T10:35:32;95597.72;;;31.44;37.50
43934;BME280;59081;42.706;23.306;2023-06-22T10:37:57;95550.06;;;31.30;37.74
43934;BME280;59081;42.706;23.306;2023-06-22T10:40:23;95493.50;;;31.41;35.62
43934;BME280;59081;42.706;23.306;2023-06-22T10:42:48;95518.97;;;31.77;36.06
43934;BME280;59081;42.706;23.306;2023-06-22T10:45:15;95529.56;;;32.07;35.35
43934;BME280;59081;42.706;23.306;2023-06-22T10:47:41;95532.94;;;32.29;35.46
43934;BME280;59081;42.706;23.306;2023-06-22T10:50:09;95514.53;;;32.30;34.73
43934;BME280;59081;42.706;23.306;2023-06-22T10:52:35;95584.91;;;32.67;33.94
43934;BME280;59081;42.706;23.306;2023-06-22T10:55:00;95522.34;;;31.99;35.52
43934;BME280;59081;42.706;23.306;2023-06-22T10:57:26;95531.84;;;32.01;35.30
43934;BME280;59081;42.706;23.306;2023-06-22T10:59:51;95570.34;;;32.48;34.61
43934;BME280;59081;42.706;23.306;2023-06-22T11:02:17;95572.19;;;32.61;34.78
43934;BME280;59081;42.706;23.306;2023-06-22T11:04:42;95490.72;;;32.42;34.05
43934;BME280;59081;42.706;23.306;2023-06-22T11:07:09;95498.28;;;32.55;33.97
43934;BME280;59081;42.706;23.306;2023-06-22T11:09:34;95511.50;;;32.75;33.00
43934;BME280;59081;42.706;23.306;2023-06-22T11:12:00;95554.28;;;32.75;33.21
43934;BME280;59081;42.706;23.306;2023-06-22T11:14:25;95553.63;;;32.44;32.93
43934;BME280;59081;42.706;23.306;2023-06-22T11:16:51;95575.97;;;32.78;32.85
43934;BME280;59081;42.706;23.306;2023-06-22T11:19:17;95492.09;;;32.81;31.30
43934;BME280;59081;42.706;23.306;2023-06-22T11:21:43;95531.44;;;33.48;30.45
43934;BME280;59081;42.706;23.306;2023-06-22T11:24:08;95516.69;;;33.34;30.71
43934;BME280;59081;42.706;23.306;2023-06-22T11:26:34;95509.56;;;33.43;30.15
43934;BME280;59081;42.706;23.306;2023-06-22T11:29:00;95521.94;;;33.70;30.73
43934;BME280;59081;42.706;23.306;2023-06-22T11:31:26;95483.47;;;33.46;30.15
43934;BME280;59081;42.706;23.306;2023-06-22T11:33:51;95557.13;;;33.48;31.08
43934;BME280;59081;42.706;23.306;2023-06-22T11:36:17;95563.53;;;32.91;31.94
43934;BME280;59081;42.706;23.306;2023-06-22T11:38:43;95537.78;;;32.66;31.85
43934;BME280;59081;42.706;23.306;2023-06-22T11:41:09;95469.38;;;31.96;32.32
43934;BME280;59081;42.706;23.306;2023-06-22T11:43:35;95555.75;;;32.29;32.83
43934;BME280;59081;42.706;23.306;2023-06-22T11:46:03;95552.38;;;32.00;34.51
43934;BME280;59081;42.706;23.306;2023-06-22T11:48:28;95470.53;;;31.39;34.63
43934;BME280;59081;42.706;23.306;2023-06-22T11:50:54;95543.44;;;31.73;34.89
43934;BME280;59081;42.706;23.306;2023-06-22T11:53:21;95528.06;;;31.61;34.82
43934;BME280;59081;42.706;23.306;2023-06-22T11:55:47;95464.25;;;31.03;34.42
43934;BME280;59081;42.706;23.306;2023-06-22T11:58:13;95516.09;;;31.32;34.55
43934;BME280;59081;42.706;23.306;2023-06-22T12:00:38;95481.25;;;30.72;35.59
43934;BME280;59081;42.706;23.306;2023-06-22T12:03:04;95545.69;;;30.70;37.35
43934;BME280;59081;42.706;23.306;2023-06-22T12:05:29;95466.91;;;29.98;37.77
43934;BME280;59081;42.706;23.306;2023-06-22T12:07:55;95454.38;;;29.94;38.12
43934;BME280;59081;42.706;23.306;2023-06-22T12:10:22;95517.59;;;30.23;38.70
43934;BME280;59081;42.706;23.306;2023-06-22T12:12:48;95557.72;;;30.19;39.51
43934;BME280;59081;42.706;23.306;2023-06-22T12:17:57;95475.31;;;29.34;41.55
43934;BME280;59081;42.706;23.306;2023-06-22T12:20:23;95467.13;;;28.34;47.07
43934;BME280;59081;42.706;23.306;2023-06-22T12:22:48;95484.56;;;28.38;50.39
43934;BME280;59081;42.706;23.306;2023-06-22T12:25:16;95550.53;;;28.59;53.37
43934;BME280;59081;42.706;23.306;2023-06-22T12:27:42;95462.22;;;27.55;55.63
43934;BME280;59081;42.706;23.306;2023-06-22T12:30:08;95558.84;;;27.91;58.19
43934;BME280;59081;42.706;23.306;2023-06-22T12:32:33;95492.28;;;27.00;59.16
43934;BME280;59081;42.706;23.306;2023-06-22T12:34:59;95543.38;;;27.02;59.39
43934;BME280;59081;42.706;23.306;2023-06-22T12:37:24;95515.41;;;26.23;60.36
43934;BME280;59081;42.706;23.306;2023-06-22T12:39:50;95522.53;;;25.87;60.89
43934;BME280;59081;42.706;23.306;2023-06-22T12:42:17;95519.66;;;25.68;60.68
43934;BME280;59081;42.706;23.306;2023-06-22T12:44:42;95572.91;;;25.17;62.40
43934;BME280;59081;42.706;23.306;2023-06-22T12:47:08;95571.97;;;25.09;62.43
43934;BME280;59081;42.706;23.306;2023-06-22T12:49:35;95508.16;;;24.76;62.66
43934;BME280;59081;42.706;23.306;2023-06-22T12:52:01;95616.47;;;25.52;59.52
43934;BME280;59081;42.706;23.306;2023-06-22T12:54:26;95562.38;;;25.23;58.34
43934;BME280;59081;42.706;23.306;2023-06-22T12:56:53;95519.50;;;24.59;58.92
43934;BME280;59081;42.706;23.306;2023-06-22T12:59:18;95514.31;;;24.28;58.68